Time;durP1;ratioP1;P1;durP2;ratioP2;P2;SDS_P1;SDS_P2;PMS_P1;PMS_P2;Temp;Humidity;BMP_temperature;BMP_pressure;BME280_temperature;BME280_humidity;BME280_pressure;Samples;Min_cycle;Max_cycle;Signal;HPM_P1;HPM_P2
2021/06/06 00:01:32;;;;;;;55.53;50.27;;;18.90;99.90;;;;;;5029373;28;20773;-58
2021/06/06 00:04:00;;;;;;;59.83;54.10;;;18.80;99.90;;;;;;5039461;28;20613;-55
2021/06/06 00:06:30;;;;;;;59.53;53.87;;;18.80;99.90;;;;;;5053906;28;20633;-55
2021/06/06 00:09:00;;;;;;;58.67;53.27;;;18.80;99.90;;;;;;5048960;28;20488;-55
2021/06/06 00:11:32;;;;;;;61.10;55.20;;;18.70;99.90;;;;;;5028076;28;20242;-55
2021/06/06 00:14:03;;;;;;;59.40;53.67;;;18.70;99.90;;;;;;5047270;28;20732;-56
2021/06/06 00:16:33;;;;;;;61.73;55.87;;;18.60;99.90;;;;;;5048042;28;20341;-55
2021/06/06 00:19:01;;;;;;;62.10;56.23;;;18.60;99.90;;;;;;5047782;28;20244;-55
2021/06/06 00:21:33;;;;;;;63.50;57.30;;;18.50;99.90;;;;;;5047258;28;20239;-55
2021/06/06 00:24:00;;;;;;;63.80;57.53;;;18.50;99.90;;;;;;5048489;28;20239;-55
2021/06/06 00:26:28;;;;;;;67.00;60.30;;;18.50;99.90;;;;;;5027642;28;20241;-56
2021/06/06 00:28:57;;;;;;;71.70;64.43;;;18.40;99.90;;;;;;5046552;28;20239;-55
2021/06/06 00:31:24;;;;;;;75.47;67.33;;;18.40;99.90;;;;;;5062755;28;20462;-56
2021/06/06 00:33:53;;;;;;;75.07;67.40;;;18.30;99.90;;;;;;5048225;28;20243;-55
2021/06/06 00:36:23;;;;;;;78.10;69.83;;;18.20;99.90;;;;;;5062685;28;20230;-55
2021/06/06 00:38:52;;;;;;;81.07;72.13;;;18.20;99.90;;;;;;5062217;28;20254;-56
2021/06/06 00:41:22;;;;;;;82.47;73.47;;;18.20;99.90;;;;;;5047580;28;20237;-55
2021/06/06 00:43:54;;;;;;;79.07;70.60;;;18.10;99.90;;;;;;5062553;28;20829;-55
2021/06/06 00:46:26;;;;;;;80.30;71.83;;;18.10;99.90;;;;;;5062236;28;20317;-56
2021/06/06 00:48:55;;;;;;;80.80;71.57;;;18.10;99.90;;;;;;5063566;28;20245;-56
2021/06/06 00:51:28;;;;;;;77.40;69.33;;;18.00;99.90;;;;;;5062307;28;20245;-55
2021/06/06 00:54:01;;;;;;;73.87;66.13;;;18.00;99.90;;;;;;5045605;28;20317;-55
2021/06/06 00:56:30;;;;;;;73.80;65.97;;;18.00;99.90;;;;;;5028763;28;20239;-56
2021/06/06 00:59:01;;;;;;;75.07;67.10;;;18.00;99.90;;;;;;5046321;28;20246;-55
2021/06/06 01:01:35;;;;;;;76.17;68.00;;;18.00;99.90;;;;;;5063316;28;20254;-54
2021/06/06 01:04:04;;;;;;;73.07;65.37;;;17.90;99.90;;;;;;5048573;28;20253;-56
2021/06/06 01:06:37;;;;;;;71.83;64.40;;;17.90;99.90;;;;;;5046425;28;20303;-55
2021/06/06 01:09:08;;;;;;;68.47;61.13;;;17.90;99.90;;;;;;5046721;28;20247;-55
2021/06/06 01:11:42;;;;;;;65.63;58.70;;;17.80;99.90;;;;;;5047683;28;20950;-54
2021/06/06 01:14:14;;;;;;;63.70;56.83;;;17.80;99.90;;;;;;5046064;28;20230;-55
2021/06/06 01:16:49;;;;;;;65.80;58.80;;;17.80;99.90;;;;;;5048135;28;20250;-55
2021/06/06 01:19:30;;;;;;;65.00;58.30;;;17.80;99.90;;;;;;5062059;28;20242;-56
2021/06/06 01:22:10;;;;;;;65.70;58.60;;;17.80;99.90;;;;;;5062194;28;20295;-56
2021/06/06 01:24:46;;;;;;;63.63;57.13;;;17.70;99.90;;;;;;5040378;28;20321;-55
2021/06/06 01:27:18;;;;;;;63.47;56.83;;;17.70;99.90;;;;;;5062300;28;20302;-55
2021/06/06 01:29:54;;;;;;;63.73;57.27;;;17.70;99.90;;;;;;5041400;28;20342;-55
2021/06/06 01:32:26;;;;;;;64.10;57.53;;;17.70;99.90;;;;;;5063369;28;20231;-55
2021/06/06 01:35:03;;;;;;;60.57;54.43;;;17.70;99.90;;;;;;5046384;28;20244;-55
2021/06/06 01:37:32;;;;;;;62.87;56.37;;;17.70;99.90;;;;;;5038707;28;20522;-55
2021/06/06 01:40:07;;;;;;;58.40;52.33;;;17.70;99.90;;;;;;5047580;28;20242;-54
2021/06/06 01:42:39;;;;;;;61.53;55.23;;;17.70;99.90;;;;;;5045629;28;20322;-55
2021/06/06 01:45:12;;;;;;;60.33;54.27;;;17.70;99.90;;;;;;5045375;28;20318;-56
2021/06/06 01:47:43;;;;;;;59.73;53.50;;;17.70;99.90;;;;;;5047239;28;20248;-55
2021/06/06 01:50:16;;;;;;;60.93;54.53;;;17.70;99.90;;;;;;5062565;28;20230;-55
2021/06/06 01:52:44;;;;;;;58.80;52.57;;;17.60;99.90;;;;;;5048495;28;20241;-55
2021/06/06 01:55:18;;;;;;;62.93;56.33;;;17.60;99.90;;;;;;5045941;28;20776;-54
2021/06/06 01:57:50;;;;;;;58.97;52.77;;;17.60;99.90;;;;;;5046938;28;20240;-55
2021/06/06 02:00:30;;;;;;;56.00;50.17;;;17.60;99.90;;;;;;5062445;28;20618;-55
2021/06/06 02:03:14;;;;;;;61.30;55.10;;;17.60;99.90;;;;;;5062330;28;20279;-55
2021/06/06 02:05:42;;;;;;;62.17;55.77;;;17.50;99.90;;;;;;5046878;28;20234;-55
2021/06/06 02:08:15;;;;;;;61.40;54.73;;;17.50;99.90;;;;;;5045509;28;20708;-54
2021/06/06 02:10:53;;;;;;;60.90;54.70;;;17.50;99.90;;;;;;5062319;28;20286;-54
2021/06/06 02:13:27;;;;;;;59.33;53.27;;;17.50;99.90;;;;;;5045552;28;20229;-54
2021/06/06 02:16:00;;;;;;;57.60;51.60;;;17.50;99.90;;;;;;5047015;28;20614;-54
2021/06/06 02:18:34;;;;;;;58.40;52.23;;;17.60;99.90;;;;;;5045615;28;20232;-55
2021/06/06 02:21:09;;;;;;;58.50;52.33;;;17.60;99.90;;;;;;5062443;28;20372;-55
2021/06/06 02:23:41;;;;;;;59.97;53.57;;;17.60;99.90;;;;;;5063588;28;20237;-55
2021/06/06 02:26:15;;;;;;;56.03;50.10;;;17.50;99.90;;;;;;5047345;28;20253;-55
2021/06/06 02:28:51;;;;;;;59.83;53.57;;;17.50;99.90;;;;;;5063722;28;20726;-56
2021/06/06 02:31:27;;;;;;;57.47;51.33;;;17.50;99.90;;;;;;5045956;28;20263;-55
2021/06/06 02:34:05;;;;;;;59.17;52.93;;;17.50;99.90;;;;;;5042050;28;20239;-55
2021/06/06 02:36:38;;;;;;;59.63;53.13;;;17.50;99.90;;;;;;5033887;28;20315;-56
2021/06/06 02:39:14;;;;;;;58.87;52.77;;;17.50;99.90;;;;;;5042606;28;20277;-56
2021/06/06 02:41:59;;;;;;;62.83;55.93;;;17.50;99.90;;;;;;5024554;28;20241;-55
2021/06/06 02:44:33;;;;;;;60.77;54.07;;;17.40;99.90;;;;;;5064286;28;20236;-55
2021/06/06 02:47:14;;;;;;;64.00;57.07;;;17.50;99.90;;;;;;5048578;28;20252;-56
2021/06/06 02:49:47;;;;;;;61.57;54.83;;;17.40;99.90;;;;;;5064238;28;20239;-55
2021/06/06 02:52:21;;;;;;;62.27;55.57;;;17.40;99.90;;;;;;5048437;28;20646;-55
2021/06/06 02:54:56;;;;;;;59.83;52.50;;;17.40;99.90;;;;;;5063499;28;20243;-54
2021/06/06 02:57:38;;;;;;;61.70;55.00;;;17.40;99.90;;;;;;5049486;28;20239;-54
2021/06/06 03:00:15;;;;;;;61.20;54.53;;;17.40;99.90;;;;;;5047909;28;20255;-55
2021/06/06 03:02:51;;;;;;;59.33;52.93;;;17.40;99.90;;;;;;5050392;28;20253;-53
2021/06/06 03:05:23;;;;;;;61.07;54.33;;;17.40;99.90;;;;;;5065322;28;20332;-56
2021/06/06 03:07:53;;;;;;;64.23;56.97;;;17.40;99.90;;;;;;5050354;28;20232;-54
2021/06/06 03:10:29;;;;;;;61.87;55.17;;;17.40;99.90;;;;;;5048163;28;20227;-54
2021/06/06 03:13:04;;;;;;;62.03;55.23;;;17.30;99.90;;;;;;5051222;28;20240;-55
2021/06/06 03:15:39;;;;;;;59.67;53.13;;;17.40;99.90;;;;;;5049271;28;20233;-54
2021/06/06 03:18:11;;;;;;;60.03;53.53;;;17.40;99.90;;;;;;5039630;28;20283;-54
2021/06/06 03:20:43;;;;;;;58.77;52.37;;;17.40;99.90;;;;;;5047919;28;20236;-55
2021/06/06 03:23:20;;;;;;;64.63;56.43;;;17.40;99.90;;;;;;5041845;28;20570;-56
2021/06/06 03:25:51;;;;;;;63.20;56.37;;;17.50;99.90;;;;;;5049981;28;20696;-55
2021/06/06 03:28:28;;;;;;;63.27;55.03;;;17.40;99.90;;;;;;5049515;28;20714;-55
2021/06/06 03:31:00;;;;;;;61.47;54.70;;;17.50;99.90;;;;;;5065055;28;20260;-56
2021/06/06 03:33:45;;;;;;;65.73;55.83;;;17.50;99.90;;;;;;5048315;28;20229;-56
2021/06/06 03:36:26;;;;;;;65.43;57.73;;;17.40;99.90;;;;;;5049863;28;20231;-55
2021/06/06 03:38:56;;;;;;;62.77;55.87;;;17.40;99.90;;;;;;5049737;28;20646;-55
2021/06/06 03:41:25;;;;;;;67.90;60.33;;;17.40;99.90;;;;;;5049318;28;20234;-56
2021/06/06 03:43:57;;;;;;;62.53;55.70;;;17.40;99.90;;;;;;5056449;28;20711;-54
2021/06/06 03:46:27;;;;;;;64.33;57.47;;;17.30;99.90;;;;;;5048327;28;20323;-55
2021/06/06 03:48:59;;;;;;;65.03;57.93;;;17.30;99.90;;;;;;5060116;28;20247;-53
2021/06/06 03:51:29;;;;;;;65.13;57.23;;;17.30;99.90;;;;;;5044654;28;20233;-55
2021/06/06 03:53:58;;;;;;;63.47;56.40;;;17.30;99.90;;;;;;5045341;28;20228;-55
2021/06/06 03:56:27;;;;;;;63.73;56.73;;;17.30;99.90;;;;;;5028115;28;20308;-54
2021/06/06 03:58:56;;;;;;;59.20;52.80;;;17.30;99.90;;;;;;5046636;28;20234;-55
2021/06/06 04:01:24;;;;;;;59.03;52.87;;;17.20;99.90;;;;;;5049302;28;20282;-55
2021/06/06 04:03:53;;;;;;;60.67;54.07;;;17.20;99.90;;;;;;5047554;28;20283;-55
2021/06/06 04:06:23;;;;;;;58.23;51.67;;;17.30;99.90;;;;;;5048610;28;20287;-54
2021/06/06 04:08:54;;;;;;;58.80;51.93;;;17.20;99.90;;;;;;5039317;28;20232;-55
2021/06/06 04:11:24;;;;;;;58.40;52.10;;;17.20;99.90;;;;;;5064372;28;20686;-55
2021/06/06 04:14:05;;;;;;;55.70;49.80;;;17.20;99.90;;;;;;5048530;28;20234;-55
2021/06/06 04:16:34;;;;;;;55.97;50.03;;;17.20;99.90;;;;;;5047603;28;20321;-55
2021/06/06 04:19:04;;;;;;;58.63;50.60;;;17.20;99.90;;;;;;5064644;28;20234;-55
2021/06/06 04:21:35;;;;;;;55.77;49.67;;;17.20;99.90;;;;;;5055698;28;20232;-55
2021/06/06 04:24:04;;;;;;;55.23;49.53;;;17.30;99.90;;;;;;5048459;28;20315;-54
2021/06/06 04:26:32;;;;;;;53.03;46.57;;;17.20;99.90;;;;;;5048868;28;20784;-54
2021/06/06 04:29:00;;;;;;;51.97;46.40;;;17.20;99.90;;;;;;5047192;28;20633;-55
2021/06/06 04:31:33;;;;;;;54.13;48.33;;;17.30;99.90;;;;;;5063777;28;20232;-55
2021/06/06 04:34:09;;;;;;;53.27;47.57;;;17.30;99.90;;;;;;5049796;28;20316;-55
2021/06/06 04:36:37;;;;;;;52.67;46.83;;;17.30;99.90;;;;;;5048549;28;20708;-56
2021/06/06 04:39:06;;;;;;;52.70;46.83;;;17.30;99.90;;;;;;5047121;28;20650;-55
2021/06/06 04:41:41;;;;;;;54.43;48.53;;;17.30;99.90;;;;;;5063820;28;20251;-55
2021/06/06 04:44:09;;;;;;;51.13;45.40;;;17.20;99.90;;;;;;5063417;28;20776;-55
2021/06/06 04:46:38;;;;;;;52.90;47.27;;;17.30;99.90;;;;;;5063866;28;20614;-55
2021/06/06 04:49:08;;;;;;;51.43;45.93;;;17.20;99.90;;;;;;5046959;28;20285;-55
2021/06/06 04:51:37;;;;;;;52.23;46.63;;;17.20;99.90;;;;;;5046601;28;20228;-55
2021/06/06 04:54:12;;;;;;;48.90;43.60;;;17.20;99.90;;;;;;5047107;28;20274;-56
2021/06/06 04:56:42;;;;;;;51.07;45.53;;;17.20;99.90;;;;;;5063466;28;20247;-56
2021/06/06 04:59:13;;;;;;;52.73;44.63;;;17.20;99.90;;;;;;5048377;28;20235;-56
2021/06/06 05:01:44;;;;;;;52.67;45.33;;;17.20;99.90;;;;;;5063358;28;20293;-56
2021/06/06 05:04:14;;;;;;;52.20;43.80;;;17.10;99.90;;;;;;5047824;28;20282;-56
2021/06/06 05:06:42;;;;;;;49.53;44.10;;;17.10;99.90;;;;;;5062997;28;20640;-54
2021/06/06 05:09:15;;;;;;;46.13;41.00;;;17.10;99.90;;;;;;5063444;28;20723;-55
2021/06/06 05:11:48;;;;;;;47.40;42.13;;;17.10;99.90;;;;;;5063107;28;20234;-55
2021/06/06 05:14:18;;;;;;;48.20;41.10;;;17.20;99.90;;;;;;5063312;28;20763;-55
2021/06/06 05:16:53;;;;;;;44.00;38.93;;;17.20;99.90;;;;;;5062933;28;20329;-54
2021/06/06 05:19:22;;;;;;;47.90;39.63;;;17.20;99.90;;;;;;5046611;28;20341;-53
2021/06/06 05:21:52;;;;;;;48.50;41.07;;;17.30;99.90;;;;;;5062397;28;20250;-55
2021/06/06 05:24:20;;;;;;;53.00;41.10;;;17.30;99.90;;;;;;5046526;28;20635;-55
2021/06/06 05:26:47;;;;;;;49.37;39.57;;;17.20;99.90;;;;;;5049151;28;20318;-56
2021/06/06 05:29:15;;;;;;;44.53;37.77;;;17.20;99.90;;;;;;5039802;28;20237;-55
2021/06/06 05:31:43;;;;;;;46.30;36.53;;;17.30;99.90;;;;;;5047248;28;20595;-55
2021/06/06 05:34:12;;;;;;;45.13;36.27;;;17.30;99.90;;;;;;5038990;28;20238;-55
2021/06/06 05:36:40;;;;;;;47.30;39.13;;;17.30;99.90;;;;;;5047743;28;20565;-55
2021/06/06 05:39:08;;;;;;;42.57;36.70;;;17.40;99.90;;;;;;5048509;28;20260;-55
2021/06/06 05:41:37;;;;;;;44.67;36.70;;;17.40;99.90;;;;;;5047247;28;20723;-55
2021/06/06 05:44:05;;;;;;;44.37;37.23;;;17.40;99.90;;;;;;5048631;28;20617;-55
2021/06/06 05:46:34;;;;;;;44.10;36.17;;;17.40;99.90;;;;;;5062376;28;20254;-55
2021/06/06 05:49:03;;;;;;;43.03;34.87;;;17.40;99.90;;;;;;5046902;28;20298;-53
2021/06/06 05:51:32;;;;;;;46.80;36.53;;;17.40;99.90;;;;;;5046991;28;20229;-55
2021/06/06 05:54:09;;;;;;;43.57;35.47;;;17.40;99.90;;;;;;5047552;28;20241;-55
2021/06/06 05:56:37;;;;;;;43.40;36.80;;;17.50;99.90;;;;;;5047258;28;20242;-54
2021/06/06 05:59:05;;;;;;;43.33;35.03;;;17.50;99.90;;;;;;5046795;28;20238;-56
2021/06/06 06:01:32;;;;;;;43.80;35.43;;;17.40;99.90;;;;;;5044539;28;20233;-54
2021/06/06 06:04:01;;;;;;;46.03;37.57;;;17.40;99.90;;;;;;5045711;28;20240;-55
2021/06/06 06:06:29;;;;;;;48.77;38.40;;;17.40;99.90;;;;;;5045660;28;20310;-55
2021/06/06 06:08:58;;;;;;;54.07;38.27;;;17.40;99.90;;;;;;5037460;28;20252;-55
2021/06/06 06:11:27;;;;;;;59.87;40.33;;;17.40;99.90;;;;;;5044920;28;20235;-55
2021/06/06 06:13:55;;;;;;;61.13;40.23;;;17.50;99.90;;;;;;5036938;28;20793;-55
2021/06/06 06:16:28;;;;;;;60.43;40.70;;;17.50;99.90;;;;;;5045918;28;20237;-54
2021/06/06 06:18:57;;;;;;;61.93;40.53;;;17.50;99.90;;;;;;5050944;28;20246;-55
2021/06/06 06:21:26;;;;;;;62.30;39.27;;;17.60;99.90;;;;;;5044418;28;20297;-54
2021/06/06 06:23:54;;;;;;;61.27;40.47;;;17.60;99.90;;;;;;5049491;28;20249;-53
2021/06/06 06:26:24;;;;;;;56.83;39.10;;;17.60;99.90;;;;;;5050047;28;20239;-54
2021/06/06 06:29:21;;;;;;;64.63;40.90;;;17.70;99.90;;;;;;5040197;28;20709;-55
2021/06/06 06:32:05;;;;;;;60.07;40.70;;;17.70;99.90;;;;;;5031860;28;20237;-55
2021/06/06 06:34:38;;;;;;;56.90;38.83;;;17.70;99.90;;;;;;5047124;28;20229;-55
2021/06/06 06:37:07;;;;;;;60.77;38.73;;;17.70;99.90;;;;;;5064669;28;20705;-55
2021/06/06 06:39:35;;;;;;;60.70;38.37;;;17.80;99.90;;;;;;5049382;28;20265;-56
2021/06/06 06:42:05;;;;;;;56.60;38.80;;;17.80;99.90;;;;;;5030903;28;20245;-55
2021/06/06 06:44:33;;;;;;;57.97;37.03;;;17.70;99.90;;;;;;5049025;28;20294;-55
2021/06/06 06:47:12;;;;;;;53.60;35.40;;;17.70;99.90;;;;;;5049017;28;20282;-55
2021/06/06 06:49:40;;;;;;;54.20;35.50;;;17.70;99.90;;;;;;5048710;28;20512;-54
2021/06/06 06:52:08;;;;;;;52.10;35.03;;;17.70;99.90;;;;;;5033196;28;20243;-53
2021/06/06 06:54:36;;;;;;;45.60;34.00;;;17.70;99.90;;;;;;5048645;28;20270;-53
2021/06/06 06:57:06;;;;;;;50.63;34.63;;;17.80;99.90;;;;;;5048314;28;20241;-54
2021/06/06 06:59:33;;;;;;;48.07;33.73;;;17.80;99.90;;;;;;5046681;28;20232;-55
2021/06/06 07:02:03;;;;;;;44.47;32.87;;;17.80;99.90;;;;;;5037447;28;20243;-56
2021/06/06 07:04:32;;;;;;;46.13;33.70;;;17.70;99.90;;;;;;5048627;28;20314;-55
2021/06/06 07:06:59;;;;;;;41.43;31.73;;;17.80;99.90;;;;;;5048908;28;20295;-56
2021/06/06 07:09:27;;;;;;;42.97;32.10;;;17.80;99.90;;;;;;5048768;28;20225;-56
2021/06/06 07:11:56;;;;;;;42.83;30.53;;;17.80;99.90;;;;;;5047693;28;20251;-54
2021/06/06 07:14:26;;;;;;;42.90;31.37;;;17.80;99.90;;;;;;5040331;28;20716;-54
2021/06/06 07:16:53;;;;;;;40.50;30.13;;;17.80;99.90;;;;;;5049113;28;20290;-55
2021/06/06 07:19:21;;;;;;;39.10;29.30;;;17.90;99.90;;;;;;5040874;28;20803;-55
2021/06/06 07:21:49;;;;;;;42.13;30.40;;;18.00;99.90;;;;;;5048212;28;20239;-55
2021/06/06 07:24:17;;;;;;;39.53;29.73;;;18.00;99.90;;;;;;5048495;28;20705;-56
2021/06/06 07:26:49;;;;;;;34.47;27.73;;;18.00;99.90;;;;;;5049544;28;20248;-56
2021/06/06 07:29:20;;;;;;;35.80;28.67;;;18.10;99.90;;;;;;5049198;28;20246;-56
2021/06/06 07:31:54;;;;;;;37.63;27.63;;;18.10;99.90;;;;;;5049238;28;20311;-55
2021/06/06 07:34:23;;;;;;;34.20;27.13;;;18.20;99.90;;;;;;5049175;28;20711;-56
2021/06/06 07:36:53;;;;;;;36.77;28.83;;;18.20;99.90;;;;;;5049387;28;20294;-56
2021/06/06 07:39:21;;;;;;;36.20;27.67;;;18.20;99.90;;;;;;5048313;28;20326;-56
2021/06/06 07:41:49;;;;;;;34.30;26.73;;;18.30;99.90;;;;;;5064939;28;20249;-56
2021/06/06 07:44:18;;;;;;;33.17;28.23;;;18.30;99.90;;;;;;5048486;28;20303;-55
2021/06/06 07:46:46;;;;;;;33.13;27.80;;;18.40;99.90;;;;;;5047781;28;20246;-56
2021/06/06 07:49:16;;;;;;;33.37;28.33;;;18.40;99.90;;;;;;5043120;28;20248;-55
2021/06/06 07:51:44;;;;;;;33.33;27.90;;;18.40;99.90;;;;;;5029462;28;20254;-56
2021/06/06 07:54:11;;;;;;;29.67;26.47;;;18.40;99.90;;;;;;5030166;28;20232;-55
2021/06/06 07:56:39;;;;;;;30.33;25.50;;;18.50;99.90;;;;;;5033877;28;20246;-55
2021/06/06 07:59:07;;;;;;;30.03;26.90;;;18.60;99.90;;;;;;5031709;28;20639;-55
2021/06/06 08:01:34;;;;;;;30.93;27.40;;;18.70;99.90;;;;;;5029863;28;20233;-56
2021/06/06 08:04:02;;;;;;;28.00;25.10;;;18.70;99.90;;;;;;5034599;28;20242;-56
2021/06/06 08:06:31;;;;;;;28.93;25.37;;;18.80;99.90;;;;;;5034602;28;20240;-55
2021/06/06 08:08:59;;;;;;;28.03;25.17;;;18.80;99.90;;;;;;5033968;28;20256;-55
2021/06/06 08:11:27;;;;;;;27.87;25.03;;;18.80;99.90;;;;;;5026554;28;20345;-56
2021/06/06 08:13:56;;;;;;;27.63;24.60;;;18.90;99.90;;;;;;5034284;28;20244;-55
2021/06/06 08:16:24;;;;;;;27.73;24.93;;;18.90;99.90;;;;;;5033987;28;20575;-56
2021/06/06 08:18:52;;;;;;;28.53;24.97;;;18.90;99.90;;;;;;5034203;28;20610;-55
2021/06/06 08:21:22;;;;;;;28.40;25.60;;;19.00;99.90;;;;;;5030804;28;20250;-54
2021/06/06 08:23:52;;;;;;;26.73;24.03;;;19.10;99.90;;;;;;5036253;28;20288;-55
2021/06/06 08:26:21;;;;;;;30.17;27.07;;;19.10;99.90;;;;;;5036666;28;20241;-55
2021/06/06 08:28:51;;;;;;;29.27;26.23;;;19.10;99.90;;;;;;5034495;28;20243;-56
2021/06/06 08:31:22;;;;;;;28.00;25.13;;;19.20;99.90;;;;;;5029253;28;20728;-56
2021/06/06 08:33:52;;;;;;;30.13;27.10;;;19.20;99.90;;;;;;5034553;28;20247;-56
2021/06/06 08:36:23;;;;;;;30.03;26.83;;;19.30;99.90;;;;;;5035946;28;20600;-55
2021/06/06 08:38:53;;;;;;;30.90;27.57;;;19.40;99.90;;;;;;5034756;28;20270;-56
2021/06/06 08:41:24;;;;;;;28.93;26.30;;;19.40;99.90;;;;;;5025363;28;20529;-55
2021/06/06 08:43:57;;;;;;;31.00;27.83;;;19.40;99.90;;;;;;5034708;28;20259;-55
2021/06/06 08:46:26;;;;;;;29.73;26.70;;;19.40;99.90;;;;;;5033976;28;20837;-56
2021/06/06 08:48:56;;;;;;;28.30;25.60;;;19.40;99.90;;;;;;5034574;28;20277;-54
2021/06/06 08:51:29;;;;;;;28.63;25.73;;;19.40;99.90;;;;;;5024797;28;20243;-55
2021/06/06 08:54:08;;;;;;;27.93;25.33;;;19.40;99.90;;;;;;5034149;28;20672;-55
2021/06/06 08:56:38;;;;;;;30.57;27.70;;;19.40;99.90;;;;;;5040611;28;20253;-55
2021/06/06 08:59:09;;;;;;;31.63;28.53;;;19.40;99.90;;;;;;5037782;28;20744;-56
2021/06/06 09:01:40;;;;;;;27.50;24.87;;;19.30;99.90;;;;;;5047550;28;20266;-55
2021/06/06 09:04:12;;;;;;;31.17;27.87;;;19.30;99.90;;;;;;5033125;28;20614;-56
2021/06/06 09:06:47;;;;;;;30.37;27.50;;;19.20;99.90;;;;;;5047796;28;20729;-56
2021/06/06 09:09:23;;;;;;;33.30;30.00;;;19.20;99.90;;;;;;5028723;28;20690;-55
2021/06/06 09:11:51;;;;;;;32.57;29.37;;;19.20;99.90;;;;;;5030363;28;20229;-56
2021/06/06 09:14:19;;;;;;;34.03;30.33;;;19.20;99.90;;;;;;5044593;28;20735;-56
2021/06/06 09:17:03;;;;;;;32.80;29.70;;;19.30;99.90;;;;;;5039227;28;20243;-55
2021/06/06 09:19:42;;;;;;;34.07;30.73;;;19.20;99.90;;;;;;5035395;28;20246;-57
2021/06/06 09:22:11;;;;;;;33.60;30.10;;;19.20;99.90;;;;;;5028689;28;20353;-55
2021/06/06 09:24:46;;;;;;;33.53;30.20;;;19.20;99.90;;;;;;5041227;28;20238;-55
2021/06/06 09:27:24;;;;;;;36.20;32.60;;;19.20;99.90;;;;;;5047559;28;20241;-56
2021/06/06 09:30:00;;;;;;;35.23;31.73;;;19.30;99.90;;;;;;5047455;28;20296;-56
2021/06/06 09:32:28;;;;;;;37.40;33.37;;;19.30;99.90;;;;;;5046725;28;20258;-54
2021/06/06 09:34:59;;;;;;;38.37;34.47;;;19.30;99.90;;;;;;5047188;28;20238;-54
2021/06/06 09:37:29;;;;;;;35.90;32.00;;;19.20;99.90;;;;;;5043398;28;20230;-54
2021/06/06 09:40:02;;;;;;;36.83;33.23;;;19.20;99.90;;;;;;5043653;28;20331;-56
2021/06/06 09:42:36;;;;;;;36.87;33.07;;;19.20;99.90;;;;;;5048286;28;20238;-55
2021/06/06 09:45:19;;;;;;;39.47;35.00;;;19.20;99.90;;;;;;5039148;28;20272;-56
2021/06/06 09:47:58;;;;;;;38.20;34.37;;;19.20;99.90;;;;;;5046989;28;20269;-56
2021/06/06 09:50:31;;;;;;;38.47;34.37;;;19.20;99.90;;;;;;5045365;28;20300;-54
2021/06/06 09:53:13;;;;;;;38.50;34.50;;;19.10;99.90;;;;;;5047204;28;20256;-56
2021/06/06 09:55:46;;;;;;;39.30;35.10;;;19.20;99.90;;;;;;5043588;28;20782;-56
2021/06/06 09:58:19;;;;;;;41.20;34.60;;;19.20;99.90;;;;;;5048492;28;20237;-57
2021/06/06 10:00:49;;;;;;;40.17;36.07;;;19.20;99.90;;;;;;5046353;28;20276;-56
2021/06/06 10:03:31;;;;;;;39.40;35.40;;;19.20;99.90;;;;;;5042488;28;20231;-56
2021/06/06 10:06:23;;;;;;;41.23;36.97;;;19.30;99.90;;;;;;5046657;28;20247;-58
2021/06/06 10:09:00;;;;;;;39.07;34.97;;;19.30;99.90;;;;;;5034045;28;20813;-58
2021/06/06 10:11:36;;;;;;;38.73;34.73;;;19.30;99.90;;;;;;5033599;28;21585;-58
2021/06/06 10:14:06;;;;;;;41.07;36.80;;;19.30;99.90;;;;;;5032561;28;20241;-58
2021/06/06 10:16:39;;;;;;;39.83;35.70;;;19.30;99.90;;;;;;5034228;28;20243;-58
2021/06/06 10:19:15;;;;;;;41.17;36.97;;;19.20;99.90;;;;;;5027688;28;20741;-58
2021/06/06 10:21:45;;;;;;;38.17;34.27;;;19.20;99.90;;;;;;5029596;28;20276;-57
2021/06/06 10:24:16;;;;;;;38.60;34.70;;;19.10;99.90;;;;;;5027873;28;20795;-58
2021/06/06 10:26:51;;;;;;;36.83;32.87;;;19.10;99.90;;;;;;5033562;28;20292;-58
2021/06/06 10:29:28;;;;;;;37.00;33.30;;;19.10;99.90;;;;;;5029907;28;20319;-57
2021/06/06 10:32:01;;;;;;;39.10;35.03;;;19.10;99.90;;;;;;5030955;28;20235;-58
2021/06/06 10:34:33;;;;;;;38.43;34.27;;;19.10;99.90;;;;;;5033301;28;20291;-58
2021/06/06 10:37:02;;;;;;;38.83;34.83;;;19.10;99.90;;;;;;5034418;28;20245;-58
2021/06/06 10:39:33;;;;;;;37.60;33.73;;;19.10;99.90;;;;;;5036407;28;20518;-58
2021/06/06 10:42:08;;;;;;;37.30;32.77;;;19.20;99.90;;;;;;5035823;28;20242;-58
2021/06/06 10:44:44;;;;;;;39.33;35.33;;;19.20;99.90;;;;;;5034909;28;20229;-57
2021/06/06 10:47:18;;;;;;;37.73;33.80;;;19.20;99.90;;;;;;5034323;28;20418;-58
2021/06/06 10:49:52;;;;;;;39.73;35.63;;;19.20;99.90;;;;;;5032892;28;20787;-57
2021/06/06 10:52:24;;;;;;;38.47;34.57;;;19.20;99.90;;;;;;5034370;28;20273;-57
2021/06/06 10:54:57;;;;;;;38.80;34.77;;;19.30;99.90;;;;;;5033802;28;20235;-58
2021/06/06 10:57:36;;;;;;;40.03;36.00;;;19.30;99.90;;;;;;5034598;28;20239;-58
2021/06/06 11:00:20;;;;;;;40.00;35.90;;;19.40;99.90;;;;;;5031082;28;20349;-59
2021/06/06 11:02:56;;;;;;;39.23;35.40;;;19.40;99.90;;;;;;5033302;28;20659;-58
2021/06/06 11:05:38;;;;;;;34.47;30.77;;;19.40;99.90;;;;;;5053182;28;20245;-56
2021/06/06 11:08:17;;;;;;;33.73;30.33;;;19.50;99.90;;;;;;5036037;28;20235;-56
2021/06/06 11:10:51;;;;;;;34.37;30.67;;;19.70;99.90;;;;;;5038928;28;20881;-56
2021/06/06 11:13:32;;;;;;;33.57;29.23;;;19.80;99.90;;;;;;5036278;28;20350;-57
2021/06/06 11:16:03;;;;;;;36.87;32.23;;;20.00;99.90;;;;;;5044017;28;20660;-59
2021/06/06 11:18:45;;;;;;;40.23;33.17;;;20.00;99.90;;;;;;5032757;28;20243;-56
2021/06/06 11:21:13;;;;;;;39.67;34.53;;;19.90;99.90;;;;;;5029955;28;20297;-57
2021/06/06 11:23:48;;;;;;;35.70;31.37;;;19.80;99.90;;;;;;5033613;28;20582;-57
2021/06/06 11:26:19;;;;;;;40.37;35.97;;;19.80;99.90;;;;;;5033490;28;20280;-56
2021/06/06 11:28:50;;;;;;;39.77;35.47;;;19.80;99.90;;;;;;5034777;28;20277;-56
2021/06/06 11:31:25;;;;;;;40.13;35.63;;;19.70;99.90;;;;;;5045719;28;20239;-58
2021/06/06 11:34:00;;;;;;;38.37;34.10;;;19.80;99.90;;;;;;5045262;28;20761;-57
2021/06/06 11:36:34;;;;;;;38.70;34.60;;;19.90;99.90;;;;;;5047107;28;20233;-57
2021/06/06 11:39:17;;;;;;;41.93;34.90;;;19.90;99.90;;;;;;5047901;28;20234;-57
2021/06/06 11:41:46;;;;;;;39.90;34.03;;;19.90;99.90;;;;;;5062677;28;20234;-56
2021/06/06 11:44:32;;;;;;;40.90;34.43;;;19.80;99.90;;;;;;5047160;28;20319;-57
2021/06/06 11:47:06;;;;;;;39.03;34.43;;;19.60;99.90;;;;;;5047182;28;20337;-56
2021/06/06 11:49:46;;;;;;;35.60;31.20;;;19.60;99.90;;;;;;5047378;28;20281;-58
2021/06/06 11:52:23;;;;;;;38.37;33.83;;;19.60;99.90;;;;;;5049701;28;20246;-58
2021/06/06 11:54:55;;;;;;;34.90;31.10;;;19.50;99.90;;;;;;5049262;28;20265;-57
2021/06/06 11:57:29;;;;;;;33.33;29.43;;;19.40;99.90;;;;;;5046114;28;20242;-58
2021/06/06 12:00:04;;;;;;;34.87;29.77;;;19.40;99.90;;;;;;5057998;28;20314;-57
2021/06/06 12:02:40;;;;;;;37.53;30.60;;;19.40;99.90;;;;;;5046159;28;20322;-58
2021/06/06 12:05:17;;;;;;;34.60;28.97;;;19.40;99.90;;;;;;5048381;28;20231;-58
2021/06/06 12:07:45;;;;;;;37.53;31.17;;;19.40;99.90;;;;;;5046390;28;20328;-58
2021/06/06 12:10:28;;;;;;;35.90;30.10;;;19.40;99.90;;;;;;5045915;28;20257;-57
2021/06/06 12:12:58;;;;;;;35.33;29.83;;;19.30;99.90;;;;;;5047805;28;20238;-57
2021/06/06 12:15:32;;;;;;;33.40;29.40;;;19.40;99.90;;;;;;5047762;28;20235;-58
2021/06/06 12:18:03;;;;;;;37.17;30.63;;;19.40;99.90;;;;;;5034540;28;20242;-57
2021/06/06 12:20:32;;;;;;;37.70;31.40;;;19.40;99.90;;;;;;5046998;28;20231;-58
2021/06/06 12:23:08;;;;;;;33.90;29.00;;;19.40;99.90;;;;;;5047650;28;20772;-57
2021/06/06 12:25:37;;;;;;;34.60;28.07;;;19.40;99.90;;;;;;5043564;28;20288;-57
2021/06/06 12:28:12;;;;;;;36.33;30.80;;;19.40;99.90;;;;;;5043123;28;20242;-57
2021/06/06 12:30:54;;;;;;;36.47;29.73;;;19.40;99.90;;;;;;5045292;28;20231;-56
2021/06/06 12:33:29;;;;;;;36.80;30.23;;;19.40;99.90;;;;;;5045838;28;20235;-58
2021/06/06 12:36:02;;;;;;;39.67;31.30;;;19.40;99.90;;;;;;5048905;28;20772;-57
2021/06/06 12:38:30;;;;;;;36.13;30.43;;;19.50;99.90;;;;;;5046901;28;20255;-57
2021/06/06 12:41:00;;;;;;;35.37;30.17;;;19.50;99.90;;;;;;5047897;28;20231;-58
2021/06/06 12:43:30;;;;;;;36.87;30.33;;;19.60;99.90;;;;;;5048420;28;20239;-57
2021/06/06 12:46:05;;;;;;;36.77;29.80;;;19.50;99.90;;;;;;5048840;28;20286;-56
2021/06/06 12:48:35;;;;;;;33.83;29.83;;;19.40;99.90;;;;;;5046873;28;20230;-58
2021/06/06 12:51:15;;;;;;;34.90;29.87;;;19.50;99.90;;;;;;5048318;28;20238;-57
2021/06/06 12:53:45;;;;;;;31.73;27.73;;;19.60;99.90;;;;;;5047430;28;20273;-56